sensor_id;sensor_type;location;lat;lon;timestamp;pressure;altitude;pressure_sealevel;temperature;humidity
80128;BME280;69440;52.118;5.408;2023-10-31T00:01:20;99775.09;;;9.79;100.00
80128;BME280;69440;52.118;5.408;2023-10-31T00:03:46;99774.47;;;9.76;100.00
80128;BME280;69440;52.118;5.408;2023-10-31T00:06:13;99773.50;;;9.77;100.00
80128;BME280;69440;52.118;5.408;2023-10-31T00:08:39;99776.19;;;9.77;100.00
80128;BME280;69440;52.118;5.408;2023-10-31T00:11:05;99778.00;;;9.76;100.00
80128;BME280;69440;52.118;5.408;2023-10-31T00:13:32;99773.84;;;9.72;100.00
80128;BME280;69440;52.118;5.408;2023-10-31T00:15:59;99779.53;;;9.68;100.00
80128;BME280;69440;52.118;5.408;2023-10-31T00:18:25;99782.09;;;9.69;100.00
80128;BME280;69440;52.118;5.408;2023-10-31T00:20:51;99785.13;;;9.64;100.00
80128;BME280;69440;52.118;5.408;2023-10-31T00:23:18;99785.53;;;9.71;100.00
80128;BME280;69440;52.118;5.408;2023-10-31T00:25:44;99783.19;;;9.67;100.00
80128;BME280;69440;52.118;5.408;2023-10-31T00:28:11;99786.38;;;9.72;100.00
80128;BME280;69440;52.118;5.408;2023-10-31T00:30:37;99782.84;;;9.71;100.00
80128;BME280;69440;52.118;5.408;2023-10-31T00:33:04;99788.97;;;9.73;100.00
80128;BME280;69440;52.118;5.408;2023-10-31T00:35:30;99789.28;;;9.69;100.00
80128;BME280;69440;52.118;5.408;2023-10-31T00:37:57;99785.31;;;9.74;100.00
80128;BME280;69440;52.118;5.408;2023-10-31T00:40:23;99786.38;;;9.72;100.00
80128;BME280;69440;52.118;5.408;2023-10-31T00:42:50;99783.72;;;9.72;100.00
80128;BME280;69440;52.118;5.408;2023-10-31T00:45:16;99792.63;;;9.72;100.00
80128;BME280;69440;52.118;5.408;2023-10-31T00:47:43;99786.50;;;9.70;100.00
80128;BME280;69440;52.118;5.408;2023-10-31T00:50:09;99788.00;;;9.74;100.00
80128;BME280;69440;52.118;5.408;2023-10-31T00:52:36;99794.22;;;9.75;100.00
80128;BME280;69440;52.118;5.408;2023-10-31T00:55:03;99799.06;;;9.70;100.00
80128;BME280;69440;52.118;5.408;2023-10-31T00:57:29;99813.09;;;9.73;100.00
80128;BME280;69440;52.118;5.408;2023-10-31T00:59:56;99808.38;;;9.77;100.00
80128;BME280;69440;52.118;5.408;2023-10-31T01:02:22;99816.31;;;9.78;100.00
80128;BME280;69440;52.118;5.408;2023-10-31T01:04:49;99820.63;;;9.81;100.00
80128;BME280;69440;52.118;5.408;2023-10-31T01:07:15;99816.00;;;9.83;100.00
80128;BME280;69440;52.118;5.408;2023-10-31T01:09:43;99825.78;;;9.84;100.00
80128;BME280;69440;52.118;5.408;2023-10-31T01:12:10;99826.84;;;9.81;100.00
80128;BME280;69440;52.118;5.408;2023-10-31T01:14:37;99824.16;;;9.81;100.00
80128;BME280;69440;52.118;5.408;2023-10-31T01:17:04;99832.00;;;9.84;100.00
80128;BME280;69440;52.118;5.408;2023-10-31T01:19:30;99828.34;;;9.85;100.00
80128;BME280;69440;52.118;5.408;2023-10-31T01:21:57;99830.06;;;9.86;100.00
80128;BME280;69440;52.118;5.408;2023-10-31T01:24:23;99833.72;;;9.85;100.00
80128;BME280;69440;52.118;5.408;2023-10-31T01:26:50;99840.56;;;9.89;100.00
80128;BME280;69440;52.118;5.408;2023-10-31T01:29:16;99842.28;;;9.90;100.00
80128;BME280;69440;52.118;5.408;2023-10-31T01:31:43;99843.13;;;9.91;100.00
80128;BME280;69440;52.118;5.408;2023-10-31T01:34:25;99847.44;;;9.93;100.00
80128;BME280;69440;52.118;5.408;2023-10-31T01:36:51;99844.63;;;9.95;100.00
80128;BME280;69440;52.118;5.408;2023-10-31T01:39:18;99845.47;;;9.95;100.00
80128;BME280;69440;52.118;5.408;2023-10-31T01:41:44;99846.97;;;10.00;100.00
80128;BME280;69440;52.118;5.408;2023-10-31T01:44:10;99850.75;;;9.97;100.00
80128;BME280;69440;52.118;5.408;2023-10-31T01:46:37;99853.94;;;10.02;100.00
80128;BME280;69440;52.118;5.408;2023-10-31T01:49:03;99853.94;;;10.02;100.00
80128;BME280;69440;52.118;5.408;2023-10-31T01:51:30;99844.91;;;10.03;100.00
80128;BME280;69440;52.118;5.408;2023-10-31T01:53:57;99848.91;;;9.98;100.00
80128;BME280;69440;52.118;5.408;2023-10-31T01:56:24;99847.94;;;9.99;100.00
80128;BME280;69440;52.118;5.408;2023-10-31T01:58:52;99854.06;;;10.01;100.00
80128;BME280;69440;52.118;5.408;2023-10-31T02:01:19;99849.78;;;9.98;100.00
80128;BME280;69440;52.118;5.408;2023-10-31T02:03:46;99854.16;;;9.99;100.00
80128;BME280;69440;52.118;5.408;2023-10-31T02:06:13;99849.66;;;10.00;100.00
80128;BME280;69440;52.118;5.408;2023-10-31T02:08:39;99841.50;;;10.01;100.00
80128;BME280;69440;52.118;5.408;2023-10-31T02:11:06;99846.84;;;10.01;100.00
80128;BME280;69440;52.118;5.408;2023-10-31T02:13:36;99846.84;;;10.01;100.00
80128;BME280;69440;52.118;5.408;2023-10-31T02:16:04;99842.34;;;10.02;100.00
80128;BME280;69440;52.118;5.408;2023-10-31T02:18:30;99858.56;;;10.00;100.00
80128;BME280;69440;52.118;5.408;2023-10-31T02:20:58;99852.34;;;10.00;100.00
80128;BME280;69440;52.118;5.408;2023-10-31T02:23:24;99848.56;;;10.02;100.00
80128;BME280;69440;52.118;5.408;2023-10-31T02:25:51;99857.25;;;10.06;100.00
80128;BME280;69440;52.118;5.408;2023-10-31T02:28:17;99853.72;;;10.05;100.00
80128;BME280;69440;52.118;5.408;2023-10-31T02:30:44;99852.84;;;10.05;100.00
80128;BME280;69440;52.118;5.408;2023-10-31T02:33:11;99860.16;;;10.03;100.00
80128;BME280;69440;52.118;5.408;2023-10-31T02:35:40;99858.47;;;10.02;100.00
80128;BME280;69440;52.118;5.408;2023-10-31T02:38:23;99856.63;;;10.02;100.00
80128;BME280;69440;52.118;5.408;2023-10-31T02:40:49;99862.00;;;10.02;100.00
80128;BME280;69440;52.118;5.408;2023-10-31T02:43:16;99860.50;;;9.98;100.00
80128;BME280;69440;52.118;5.408;2023-10-31T02:45:42;99862.34;;;9.98;100.00
80128;BME280;69440;52.118;5.408;2023-10-31T02:48:09;99863.31;;;9.96;100.00
80128;BME280;69440;52.118;5.408;2023-10-31T02:50:35;99865.88;;;9.98;100.00
80128;BME280;69440;52.118;5.408;2023-10-31T02:53:02;99872.31;;;9.95;100.00
80128;BME280;69440;52.118;5.408;2023-10-31T02:55:28;99863.31;;;9.96;100.00
80128;BME280;69440;52.118;5.408;2023-10-31T02:57:55;99871.47;;;9.95;100.00
80128;BME280;69440;52.118;5.408;2023-10-31T03:00:21;99871.47;;;9.95;100.00
80128;BME280;69440;52.118;5.408;2023-10-31T03:02:48;99889.19;;;9.98;100.00
80128;BME280;69440;52.118;5.408;2023-10-31T03:05:14;99874.03;;;9.96;100.00
80128;BME280;69440;52.118;5.408;2023-10-31T03:07:41;99882.22;;;9.95;100.00
80128;BME280;69440;52.118;5.408;2023-10-31T03:10:07;99884.03;;;9.94;100.00
80128;BME280;69440;52.118;5.408;2023-10-31T03:12:34;99886.59;;;9.96;100.00
80128;BME280;69440;52.118;5.408;2023-10-31T03:15:00;99898.19;;;9.96;100.00
80128;BME280;69440;52.118;5.408;2023-10-31T03:17:27;99902.72;;;9.96;100.00
80128;BME280;69440;52.118;5.408;2023-10-31T03:19:54;99904.53;;;9.95;100.00
80128;BME280;69440;52.118;5.408;2023-10-31T03:22:21;99907.34;;;9.94;100.00
80128;BME280;69440;52.118;5.408;2023-10-31T03:24:47;99910.75;;;9.96;100.00
80128;BME280;69440;52.118;5.408;2023-10-31T03:27:14;99914.31;;;9.96;100.00
80128;BME280;69440;52.118;5.408;2023-10-31T03:29:40;99927.72;;;9.96;100.00
80128;BME280;69440;52.118;5.408;2023-10-31T03:32:07;99921.28;;;9.99;100.00
80128;BME280;69440;52.118;5.408;2023-10-31T03:34:33;99924.06;;;9.98;100.00
80128;BME280;69440;52.118;5.408;2023-10-31T03:37:00;99931.16;;;9.99;100.00
80128;BME280;69440;52.118;5.408;2023-10-31T03:39:26;99932.97;;;9.98;100.00
80128;BME280;69440;52.118;5.408;2023-10-31T03:41:53;99937.59;;;9.96;100.00
80128;BME280;69440;52.118;5.408;2023-10-31T03:44:19;99942.00;;;9.97;100.00
80128;BME280;69440;52.118;5.408;2023-10-31T03:46:46;99947.47;;;9.95;100.00
80128;BME280;69440;52.118;5.408;2023-10-31T03:49:12;99947.47;;;9.95;100.00
80128;BME280;69440;52.118;5.408;2023-10-31T03:51:39;99958.44;;;9.92;100.00
80128;BME280;69440;52.118;5.408;2023-10-31T03:54:05;99969.91;;;9.94;100.00
80128;BME280;69440;52.118;5.408;2023-10-31T03:56:39;99972.94;;;9.90;100.00
80128;BME280;69440;52.118;5.408;2023-10-31T03:59:06;99968.22;;;9.93;100.00
80128;BME280;69440;52.118;5.408;2023-10-31T04:01:33;99974.53;;;9.92;100.00
80128;BME280;69440;52.118;5.408;2023-10-31T04:03:59;99971.22;;;9.89;100.00
80128;BME280;69440;52.118;5.408;2023-10-31T04:06:26;99978.19;;;9.91;100.00
80128;BME280;69440;52.118;5.408;2023-10-31T04:08:52;99983.78;;;9.88;100.00
80128;BME280;69440;52.118;5.408;2023-10-31T04:11:19;99984.00;;;9.85;100.00
80128;BME280;69440;52.118;5.408;2023-10-31T04:13:45;99984.00;;;9.85;100.00
80128;BME280;69440;52.118;5.408;2023-10-31T04:16:12;99989.25;;;9.87;100.00
80128;BME280;69440;52.118;5.408;2023-10-31T04:18:38;99991.09;;;9.86;100.00
80128;BME280;69440;52.118;5.408;2023-10-31T04:21:05;99995.59;;;9.86;100.00
80128;BME280;69440;52.118;5.408;2023-10-31T04:23:32;99996.56;;;9.85;100.00
80128;BME280;69440;52.118;5.408;2023-10-31T04:26:00;99998.28;;;9.86;100.00
80128;BME280;69440;52.118;5.408;2023-10-31T04:28:26;100000.97;;;9.86;100.00
80128;BME280;69440;52.118;5.408;2023-10-31T04:30:53;100007.28;;;9.85;100.00
80128;BME280;69440;52.118;5.408;2023-10-31T04:33:19;100003.84;;;9.83;100.00
80128;BME280;69440;52.118;5.408;2023-10-31T04:35:46;100000.22;;;9.84;100.00
80128;BME280;69440;52.118;5.408;2023-10-31T04:38:12;100004.72;;;9.83;100.00
80128;BME280;69440;52.118;5.408;2023-10-31T04:40:38;100005.69;;;9.82;100.00
80128;BME280;69440;52.118;5.408;2023-10-31T04:43:05;100007.28;;;9.85;100.00
80128;BME280;69440;52.118;5.408;2023-10-31T04:45:31;100009.88;;;9.86;100.00
80128;BME280;69440;52.118;5.408;2023-10-31T04:47:58;100009.97;;;9.85;100.00
80128;BME280;69440;52.118;5.408;2023-10-31T04:50:25;100008.25;;;9.84;100.00
80128;BME280;69440;52.118;5.408;2023-10-31T04:52:51;100011.81;;;9.84;100.00
80128;BME280;69440;52.118;5.408;2023-10-31T04:55:17;100009.97;;;9.85;100.00
80128;BME280;69440;52.118;5.408;2023-10-31T04:57:44;100014.59;;;9.83;100.00
80128;BME280;69440;52.118;5.408;2023-10-31T05:00:11;100011.22;;;9.79;100.00
80128;BME280;69440;52.118;5.408;2023-10-31T05:02:37;100017.28;;;9.83;100.00
80128;BME280;69440;52.118;5.408;2023-10-31T05:05:04;100027.34;;;9.79;100.00
80128;BME280;69440;52.118;5.408;2023-10-31T05:07:31;100024.88;;;9.76;100.00
80128;BME280;69440;52.118;5.408;2023-10-31T05:09:59;100025.06;;;9.73;100.00
80128;BME280;69440;52.118;5.408;2023-10-31T05:12:26;100025.28;;;9.70;100.00
80128;BME280;69440;52.118;5.408;2023-10-31T05:14:52;100030.00;;;9.67;100.00
80128;BME280;69440;52.118;5.408;2023-10-31T05:17:19;100040.44;;;9.71;100.00
80128;BME280;69440;52.118;5.408;2023-10-31T05:19:45;100038.16;;;9.65;100.00
80128;BME280;69440;52.118;5.408;2023-10-31T05:22:12;100041.28;;;9.59;100.00
80128;BME280;69440;52.118;5.408;2023-10-31T05:24:38;100038.59;;;9.59;100.00
80128;BME280;69440;52.118;5.408;2023-10-31T05:27:05;100035.25;;;9.55;100.00
80128;BME280;69440;52.118;5.408;2023-10-31T05:29:33;100043.19;;;9.57;100.00
80128;BME280;69440;52.118;5.408;2023-10-31T05:32:00;100046.00;;;9.55;100.00
80128;BME280;69440;52.118;5.408;2023-10-31T05:34:27;100051.66;;;9.51;100.00
80128;BME280;69440;52.118;5.408;2023-10-31T05:36:54;100053.56;;;9.49;100.00
80128;BME280;69440;52.118;5.408;2023-10-31T05:39:20;100057.22;;;9.48;100.00
80128;BME280;69440;52.118;5.408;2023-10-31T05:41:47;100066.22;;;9.47;100.00
80128;BME280;69440;52.118;5.408;2023-10-31T05:44:13;100068.03;;;9.46;100.00
80128;BME280;69440;52.118;5.408;2023-10-31T05:46:40;100070.06;;;9.43;100.00
80128;BME280;69440;52.118;5.408;2023-10-31T05:49:07;100070.06;;;9.43;100.00
80128;BME280;69440;52.118;5.408;2023-10-31T05:51:34;100077.06;;;9.45;100.00
80128;BME280;69440;52.118;5.408;2023-10-31T05:54:01;100082.31;;;9.47;100.00
80128;BME280;69440;52.118;5.408;2023-10-31T05:56:28;100076.84;;;9.48;100.00
80128;BME280;69440;52.118;5.408;2023-10-31T05:58:54;100077.91;;;9.46;100.00
80128;BME280;69440;52.118;5.408;2023-10-31T06:01:21;100083.06;;;9.49;100.00
80128;BME280;69440;52.118;5.408;2023-10-31T06:03:47;100084.03;;;9.48;100.00
80128;BME280;69440;52.118;5.408;2023-10-31T06:06:14;100088.63;;;9.46;100.00
80128;BME280;69440;52.118;5.408;2023-10-31T06:08:41;100085.19;;;9.44;100.00
80128;BME280;69440;52.118;5.408;2023-10-31T06:11:08;100092.38;;;9.43;100.00
80128;BME280;69440;52.118;5.408;2023-10-31T06:13:34;100089.50;;;9.46;100.00
80128;BME280;69440;52.118;5.408;2023-10-31T06:16:04;100091.53;;;9.43;100.00
80128;BME280;69440;52.118;5.408;2023-10-31T06:18:34;100092.38;;;9.43;100.00
80128;BME280;69440;52.118;5.408;2023-10-31T06:21:01;100098.59;;;9.44;100.00
80128;BME280;69440;52.118;5.408;2023-10-31T06:23:27;100098.72;;;9.42;100.00
80128;BME280;69440;52.118;5.408;2023-10-31T06:25:57;100094.41;;;9.40;100.00
80128;BME280;69440;52.118;5.408;2023-10-31T06:28:24;100108.69;;;9.40;100.00
80128;BME280;69440;52.118;5.408;2023-10-31T06:30:53;100102.47;;;9.40;100.00
80128;BME280;69440;52.118;5.408;2023-10-31T06:33:26;100112.22;;;9.41;100.00
80128;BME280;69440;52.118;5.408;2023-10-31T06:35:52;100112.22;;;9.41;100.00
80128;BME280;69440;52.118;5.408;2023-10-31T06:38:20;100115.00;;;9.39;100.00
80128;BME280;69440;52.118;5.408;2023-10-31T06:40:46;100116.84;;;9.39;100.00
80128;BME280;69440;52.118;5.408;2023-10-31T06:43:13;100114.25;;;9.37;100.00
80128;BME280;69440;52.118;5.408;2023-10-31T06:45:39;100124.22;;;9.35;100.00
80128;BME280;69440;52.118;5.408;2023-10-31T06:48:06;100132.47;;;9.32;100.00
80128;BME280;69440;52.118;5.408;2023-10-31T06:50:35;100136.13;;;9.31;100.00
80128;BME280;69440;52.118;5.408;2023-10-31T06:53:01;100137.19;;;9.28;100.00
80128;BME280;69440;52.118;5.408;2023-10-31T06:55:28;100145.31;;;9.27;100.00
80128;BME280;69440;52.118;5.408;2023-10-31T06:57:54;100142.63;;;9.27;100.00
80128;BME280;69440;52.118;5.408;2023-10-31T07:00:21;100143.41;;;9.29;100.00
80128;BME280;69440;52.118;5.408;2023-10-31T07:02:47;100142.53;;;9.28;100.00
80128;BME280;69440;52.118;5.408;2023-10-31T07:05:14;100145.22;;;9.28;100.00
80128;BME280;69440;52.118;5.408;2023-10-31T07:07:42;100154.31;;;9.26;100.00
80128;BME280;69440;52.118;5.408;2023-10-31T07:10:08;100146.94;;;9.29;100.00
80128;BME280;69440;52.118;5.408;2023-10-31T07:12:34;100146.06;;;9.29;100.00
80128;BME280;69440;52.118;5.408;2023-10-31T07:15:01;100155.84;;;9.30;100.00
80128;BME280;69440;52.118;5.408;2023-10-31T07:17:27;100161.88;;;9.33;100.00
80128;BME280;69440;52.118;5.408;2023-10-31T07:19:54;100159.28;;;9.32;100.00
80128;BME280;69440;52.118;5.408;2023-10-31T07:22:21;100169.91;;;9.33;100.00
80128;BME280;69440;52.118;5.408;2023-10-31T07:24:51;100174.09;;;9.38;100.00
80128;BME280;69440;52.118;5.408;2023-10-31T07:27:18;100172.84;;;9.43;100.00
80128;BME280;69440;52.118;5.408;2023-10-31T07:29:44;100170.81;;;9.47;100.00
80128;BME280;69440;52.118;5.408;2023-10-31T07:32:12;100179.03;;;9.58;100.00
80128;BME280;69440;52.118;5.408;2023-10-31T07:34:42;100183.91;;;9.65;100.00
80128;BME280;69440;52.118;5.408;2023-10-31T07:37:09;100173.81;;;9.69;100.00
80128;BME280;69440;52.118;5.408;2023-10-31T07:39:35;100183.94;;;9.78;100.00
80128;BME280;69440;52.118;5.408;2023-10-31T07:42:02;100179.75;;;9.74;100.00
80128;BME280;69440;52.118;5.408;2023-10-31T07:44:28;100186.63;;;9.78;100.00
80128;BME280;69440;52.118;5.408;2023-10-31T07:46:55;100181.47;;;9.75;100.00
80128;BME280;69440;52.118;5.408;2023-10-31T07:49:22;100193.06;;;9.76;100.00
80128;BME280;69440;52.118;5.408;2023-10-31T07:51:49;100198.44;;;9.76;100.00
80128;BME280;69440;52.118;5.408;2023-10-31T07:54:15;100196.50;;;9.78;100.00
80128;BME280;69440;52.118;5.408;2023-10-31T07:56:43;100205.13;;;9.83;100.00
80128;BME280;69440;52.118;5.408;2023-10-31T07:59:09;100201.38;;;9.85;100.00
80128;BME280;69440;52.118;5.408;2023-10-31T08:01:35;100205.03;;;9.84;100.00
80128;BME280;69440;52.118;5.408;2023-10-31T08:04:02;100199.56;;;9.86;100.00
80128;BME280;69440;52.118;5.408;2023-10-31T08:06:29;100200.00;;;9.92;100.00
80128;BME280;69440;52.118;5.408;2023-10-31T08:08:55;100210.53;;;9.95;100.00
80128;BME280;69440;52.118;5.408;2023-10-31T08:11:22;100204.97;;;9.99;100.00
80128;BME280;69440;52.118;5.408;2023-10-31T08:13:49;100203.88;;;10.01;100.00
80128;BME280;69440;52.118;5.408;2023-10-31T08:16:18;100207.34;;;10.03;100.00
80128;BME280;69440;52.118;5.408;2023-10-31T08:18:46;100206.84;;;10.11;100.00
80128;BME280;69440;52.118;5.408;2023-10-31T08:21:13;100203.75;;;10.17;100.00
80128;BME280;69440;52.118;5.408;2023-10-31T08:23:40;100211.41;;;10.23;100.00
80128;BME280;69440;52.118;5.408;2023-10-31T08:26:06;100215.81;;;10.24;100.00
80128;BME280;69440;52.118;5.408;2023-10-31T08:28:33;100213.03;;;10.25;100.00
80128;BME280;69440;52.118;5.408;2023-10-31T08:31:00;100214.31;;;10.33;100.00
80128;BME280;69440;52.118;5.408;2023-10-31T08:33:26;100214.00;;;10.37;100.00
80128;BME280;69440;52.118;5.408;2023-10-31T08:35:53;100214.75;;;10.39;100.00
80128;BME280;69440;52.118;5.408;2023-10-31T08:38:19;100216.06;;;10.46;100.00
80128;BME280;69440;52.118;5.408;2023-10-31T08:40:56;100216.72;;;10.50;100.00
80128;BME280;69440;52.118;5.408;2023-10-31T08:43:23;100218.97;;;10.69;100.00
80128;BME280;69440;52.118;5.408;2023-10-31T08:45:49;100225.56;;;10.77;100.00
80128;BME280;69440;52.118;5.408;2023-10-31T08:48:15;100224.91;;;10.86;100.00
80128;BME280;69440;52.118;5.408;2023-10-31T08:50:42;100236.22;;;11.04;100.00
80128;BME280;69440;52.118;5.408;2023-10-31T08:53:09;100234.78;;;11.24;100.00
80128;BME280;69440;52.118;5.408;2023-10-31T08:55:36;100236.28;;;11.41;100.00
80128;BME280;69440;52.118;5.408;2023-10-31T08:58:02;100234.09;;;11.46;100.00
80128;BME280;69440;52.118;5.408;2023-10-31T09:00:29;100242.25;;;11.57;100.00
80128;BME280;69440;52.118;5.408;2023-10-31T09:02:55;100250.03;;;11.49;100.00
80128;BME280;69440;52.118;5.408;2023-10-31T09:05:22;100252.88;;;11.35;100.00
80128;BME280;69440;52.118;5.408;2023-10-31T09:07:48;100253.06;;;11.32;100.00
80128;BME280;69440;52.118;5.408;2023-10-31T09:10:15;100263.19;;;11.41;100.00
80128;BME280;69440;52.118;5.408;2023-10-31T09:12:41;100265.09;;;11.51;100.00
80128;BME280;69440;52.118;5.408;2023-10-31T09:15:08;100267.97;;;11.61;100.00
80128;BME280;69440;52.118;5.408;2023-10-31T09:17:36;100269.69;;;11.75;100.00
80128;BME280;69440;52.118;5.408;2023-10-31T09:20:03;100275.03;;;11.88;100.00
80128;BME280;69440;52.118;5.408;2023-10-31T09:22:29;100274.59;;;11.94;100.00
80128;BME280;69440;52.118;5.408;2023-10-31T09:24:56;100282.75;;;12.05;100.00
80128;BME280;69440;52.118;5.408;2023-10-31T09:27:22;100289.28;;;12.13;100.00
80128;BME280;69440;52.118;5.408;2023-10-31T09:29:48;100286.75;;;12.23;100.00
80128;BME280;69440;52.118;5.408;2023-10-31T09:32:15;100285.88;;;12.23;100.00
80128;BME280;69440;52.118;5.408;2023-10-31T09:34:42;100282.03;;;12.27;100.00
80128;BME280;69440;52.118;5.408;2023-10-31T09:37:09;100284.88;;;12.36;100.00
80128;BME280;69440;52.118;5.408;2023-10-31T09:39:35;100282.84;;;12.51;100.00
80128;BME280;69440;52.118;5.408;2023-10-31T09:42:02;100290.03;;;12.74;100.00
80128;BME280;69440;52.118;5.408;2023-10-31T09:44:29;100292.88;;;12.84;100.00
80128;BME280;69440;52.118;5.408;2023-10-31T09:46:56;100293.28;;;12.91;100.00
80128;BME280;69440;52.118;5.408;2023-10-31T09:49:23;100299.50;;;12.80;100.00
80128;BME280;69440;52.118;5.408;2023-10-31T09:51:50;100298.06;;;12.87;100.00
80128;BME280;69440;52.118;5.408;2023-10-31T09:54:17;100300.00;;;12.85;100.00
80128;BME280;69440;52.118;5.408;2023-10-31T09:56:44;100308.16;;;13.07;100.00
80128;BME280;69440;52.118;5.408;2023-10-31T09:59:10;100309.59;;;13.00;100.00
80128;BME280;69440;52.118;5.408;2023-10-31T10:01:37;100310.22;;;13.04;100.00
80128;BME280;69440;52.118;5.408;2023-10-31T10:04:05;100316.44;;;13.17;100.00
80128;BME280;69440;52.118;5.408;2023-10-31T10:06:32;100315.94;;;13.34;100.00
80128;BME280;69440;52.118;5.408;2023-10-31T10:08:58;100320.88;;;13.52;100.00
80128;BME280;69440;52.118;5.408;2023-10-31T10:11:25;100325.66;;;13.59;100.00
80128;BME280;69440;52.118;5.408;2023-10-31T10:13:52;100329.00;;;13.52;100.00
80128;BME280;69440;52.118;5.408;2023-10-31T10:16:30;100334.25;;;13.87;100.00
80128;BME280;69440;52.118;5.408;2023-10-31T10:18:57;100328.47;;;14.14;100.00
80128;BME280;69440;52.118;5.408;2023-10-31T10:21:23;100326.09;;;14.20;100.00
80128;BME280;69440;52.118;5.408;2023-10-31T10:23:51;100329.06;;;14.06;100.00
80128;BME280;69440;52.118;5.408;2023-10-31T10:26:18;100334.84;;;14.02;100.00
80128;BME280;69440;52.118;5.408;2023-10-31T10:29:01;100334.72;;;14.14;100.00
80128;BME280;69440;52.118;5.408;2023-10-31T10:31:27;100338.38;;;14.24;100.00
80128;BME280;69440;52.118;5.408;2023-10-31T10:33:54;100337.38;;;14.25;100.00
80128;BME280;69440;52.118;5.408;2023-10-31T10:36:22;100328.16;;;14.28;100.00
80128;BME280;69440;52.118;5.408;2023-10-31T10:38:56;100335.38;;;14.39;100.00
80128;BME280;69440;52.118;5.408;2023-10-31T10:41:25;100334.28;;;14.52;100.00
80128;BME280;69440;52.118;5.408;2023-10-31T10:44:06;100340.06;;;14.48;100.00
80128;BME280;69440;52.118;5.408;2023-10-31T10:46:35;100342.66;;;14.49;100.00
80128;BME280;69440;52.118;5.408;2023-10-31T10:49:04;100349.19;;;14.47;100.00
80128;BME280;69440;52.118;5.408;2023-10-31T10:54:16;100349.19;;;14.47;100.00
80128;BME280;69440;52.118;5.408;2023-10-31T10:56:53;100348.19;;;14.48;100.00
80128;BME280;69440;52.118;5.408;2023-10-31T10:59:46;100347.72;;;14.75;100.00
80128;BME280;69440;52.118;5.408;2023-10-31T11:02:17;100350.31;;;14.76;100.00
80128;BME280;69440;52.118;5.408;2023-10-31T11:04:44;100340.41;;;14.86;100.00
80128;BME280;69440;52.118;5.408;2023-10-31T11:07:12;100350.56;;;14.73;100.00
80128;BME280;69440;52.118;5.408;2023-10-31T11:09:39;100343.78;;;14.68;100.00
80128;BME280;69440;52.118;5.408;2023-10-31T11:12:06;100341.00;;;14.90;100.00
80128;BME280;69440;52.118;5.408;2023-10-31T11:14:33;100346.09;;;15.25;100.00
80128;BME280;69440;52.118;5.408;2023-10-31T11:17:04;100345.63;;;15.41;100.00
80128;BME280;69440;52.118;5.408;2023-10-31T11:19:33;100343.69;;;15.52;100.00
80128;BME280;69440;52.118;5.408;2023-10-31T11:22:01;100346.09;;;15.67;100.00
80128;BME280;69440;52.118;5.408;2023-10-31T11:24:29;100350.16;;;15.31;100.00
80128;BME280;69440;52.118;5.408;2023-10-31T11:27:01;100352.81;;;14.89;100.00
80128;BME280;69440;52.118;5.408;2023-10-31T11:29:28;100364.38;;;14.59;100.00
80128;BME280;69440;52.118;5.408;2023-10-31T11:31:55;100363.03;;;14.42;100.00
80128;BME280;69440;52.118;5.408;2023-10-31T11:34:23;100365.81;;;14.63;100.00
80128;BME280;69440;52.118;5.408;2023-10-31T11:36:52;100369.56;;;14.83;100.00
80128;BME280;69440;52.118;5.408;2023-10-31T11:39:20;100365.47;;;15.62;100.00
80128;BME280;69440;52.118;5.408;2023-10-31T11:41:55;100379.47;;;15.67;100.00
80128;BME280;69440;52.118;5.408;2023-10-31T11:44:26;100373.59;;;14.88;100.00
80128;BME280;69440;52.118;5.408;2023-10-31T11:46:53;100375.19;;;14.37;100.00
80128;BME280;69440;52.118;5.408;2023-10-31T11:49:45;100373.34;;;14.59;100.00
80128;BME280;69440;52.118;5.408;2023-10-31T11:52:16;100380.06;;;14.11;100.00
80128;BME280;69440;52.118;5.408;2023-10-31T11:54:43;100376.84;;;13.94;100.00
80128;BME280;69440;52.118;5.408;2023-10-31T11:57:10;100375.03;;;13.84;100.00
80128;BME280;69440;52.118;5.408;2023-10-31T11:59:39;100376.59;;;13.75;100.00
80128;BME280;69440;52.118;5.408;2023-10-31T12:02:14;100382.38;;;13.59;100.00
80128;BME280;69440;52.118;5.408;2023-10-31T12:04:41;100385.41;;;13.44;100.00
80128;BME280;69440;52.118;5.408;2023-10-31T12:07:08;100388.72;;;13.36;100.00
80128;BME280;69440;52.118;5.408;2023-10-31T12:09:48;100392.16;;;13.38;100.00
80128;BME280;69440;52.118;5.408;2023-10-31T12:12:15;100395.22;;;13.45;100.00
80128;BME280;69440;52.118;5.408;2023-10-31T12:14:41;100391.53;;;13.34;100.00
80128;BME280;69440;52.118;5.408;2023-10-31T12:17:08;100390.44;;;13.37;100.00
80128;BME280;69440;52.118;5.408;2023-10-31T12:19:36;100392.16;;;13.38;100.00
80128;BME280;69440;52.118;5.408;2023-10-31T12:22:12;100401.22;;;13.37;100.00
80128;BME280;69440;52.118;5.408;2023-10-31T12:24:39;100403.06;;;13.36;100.00
80128;BME280;69440;52.118;5.408;2023-10-31T12:27:05;100405.75;;;13.36;100.00
80128;BME280;69440;52.118;5.408;2023-10-31T12:29:32;100414.59;;;13.39;100.00
80128;BME280;69440;52.118;5.408;2023-10-31T12:31:58;100414.31;;;13.19;100.00
80128;BME280;69440;52.118;5.408;2023-10-31T12:34:25;100421.94;;;13.01;100.00
80128;BME280;69440;52.118;5.408;2023-10-31T12:36:53;100422.28;;;12.97;100.00
80128;BME280;69440;52.118;5.408;2023-10-31T12:39:27;100413.97;;;13.00;100.00
80128;BME280;69440;52.118;5.408;2023-10-31T12:41:54;100423.66;;;13.95;100.00
80128;BME280;69440;52.118;5.408;2023-10-31T12:44:24;100416.44;;;14.83;100.00
80128;BME280;69440;52.118;5.408;2023-10-31T12:46:53;100431.25;;;14.35;100.00
80128;BME280;69440;52.118;5.408;2023-10-31T12:49:20;100427.81;;;13.99;100.00
80128;BME280;69440;52.118;5.408;2023-10-31T12:52:03;100432.94;;;13.68;100.00
80128;BME280;69440;52.118;5.408;2023-10-31T12:57:02;100430.97;;;13.59;100.00